Time;durP1;ratioP1;P1;durP2;ratioP2;P2;SDS_P1;SDS_P2;PMS_P1;PMS_P2;Temp;Humidity;BMP_temperature;BMP_pressure;BME280_temperature;BME280_humidity;BME280_pressure;Samples;Min_cycle;Max_cycle;Signal;HPM_P1;HPM_P2
2021/06/23 00:00:26;;;;;;;14.30;9.82;;;16.30;99.90;;;;;;4983505;28;20150;-88
2021/06/23 00:02:54;;;;;;;11.10;9.43;;;16.30;99.90;;;;;;4978458;28;20453;-89
2021/06/23 00:05:21;;;;;;;12.45;10.13;;;16.40;99.90;;;;;;4967849;28;20146;-90
2021/06/23 00:07:51;;;;;;;12.02;10.35;;;16.30;99.90;;;;;;4968330;28;20102;-89
2021/06/23 00:10:21;;;;;;;15.57;9.50;;;16.30;99.90;;;;;;4967547;28;20046;-91
2021/06/23 00:12:50;;;;;;;13.85;9.93;;;16.30;99.90;;;;;;4967171;28;20057;-90
2021/06/23 00:15:18;;;;;;;12.27;9.70;;;16.30;99.90;;;;;;4954780;28;20386;-90
2021/06/23 00:17:48;;;;;;;16.45;10.35;;;16.20;99.90;;;;;;4968326;28;20126;-91
2021/06/23 00:20:15;;;;;;;12.23;9.77;;;16.20;99.90;;;;;;4969917;28;20117;-90
2021/06/23 00:22:43;;;;;;;14.77;11.15;;;16.30;99.90;;;;;;4947836;28;20514;-90
2021/06/23 00:25:11;;;;;;;13.30;11.68;;;16.30;99.90;;;;;;4955339;28;20102;-92
2021/06/23 00:27:38;;;;;;;20.95;11.90;;;16.30;99.90;;;;;;4954539;28;20134;-92
2021/06/23 00:30:06;;;;;;;21.02;13.18;;;16.30;99.90;;;;;;4974360;28;20141;-90
2021/06/23 00:32:37;;;;;;;19.77;12.85;;;16.30;99.90;;;;;;4972195;28;20576;-90
2021/06/23 00:35:06;;;;;;;15.52;13.50;;;16.30;99.90;;;;;;4971779;28;20059;-90
2021/06/23 00:37:33;;;;;;;21.00;13.23;;;16.30;99.90;;;;;;4965349;28;20050;-90
2021/06/23 00:39:59;;;;;;;18.25;13.50;;;16.30;99.90;;;;;;4969872;28;20134;-90
2021/06/23 00:42:27;;;;;;;18.88;13.50;;;16.20;99.90;;;;;;4974917;28;20466;-89
2021/06/23 00:44:54;;;;;;;16.60;13.68;;;16.20;99.90;;;;;;4971075;28;20039;-90
2021/06/23 00:47:26;;;;;;;17.42;12.65;;;16.10;99.90;;;;;;4954906;28;20043;-91
2021/06/23 00:49:53;;;;;;;14.93;12.50;;;16.20;99.90;;;;;;4950982;28;20054;-89
2021/06/23 00:52:22;;;;;;;20.90;13.40;;;16.10;99.90;;;;;;4948138;28;20480;-90
2021/06/23 00:54:51;;;;;;;15.27;11.93;;;16.10;99.90;;;;;;4969402;28;20043;-90
2021/06/23 00:57:19;;;;;;;19.00;13.10;;;16.20;99.90;;;;;;4984494;28;20054;-90
2021/06/23 00:59:50;;;;;;;17.85;14.80;;;16.10;99.90;;;;;;4967770;28;20142;-89
2021/06/23 01:02:19;;;;;;;19.52;15.35;;;16.20;99.90;;;;;;4975117;28;20130;-91
2021/06/23 01:04:51;;;;;;;21.48;15.80;;;16.20;99.90;;;;;;4979235;28;20051;-89
2021/06/23 01:07:19;;;;;;;24.13;15.88;;;16.10;99.90;;;;;;4975573;28;20102;-90
2021/06/23 01:09:46;;;;;;;22.23;16.10;;;16.10;99.90;;;;;;4981827;28;20142;-88
2021/06/23 01:12:28;;;;;;;18.88;14.85;;;16.10;99.90;;;;;;4976477;28;20039;-90
2021/06/23 01:14:59;;;;;;;23.13;14.23;;;16.10;99.90;;;;;;4973525;28;20122;-91
2021/06/23 01:17:30;;;;;;;17.63;13.57;;;16.00;99.90;;;;;;4967868;28;20058;-91
2021/06/23 01:20:05;;;;;;;15.45;13.65;;;16.00;99.90;;;;;;4970348;28;20057;-91
2021/06/23 01:22:33;;;;;;;22.80;14.38;;;16.00;99.90;;;;;;4951472;28;20043;-90
2021/06/23 01:25:03;;;;;;;19.40;14.10;;;16.00;99.90;;;;;;4973528;28;20134;-91
2021/06/23 01:27:30;;;;;;;20.08;14.77;;;16.00;99.90;;;;;;4965413;28;20138;-91
2021/06/23 01:29:57;;;;;;;20.77;14.35;;;16.00;99.90;;;;;;4973282;28;20038;-90
2021/06/23 01:32:26;;;;;;;19.33;14.55;;;16.00;99.90;;;;;;4970428;28;20126;-90
2021/06/23 01:34:53;;;;;;;18.85;14.45;;;16.00;99.90;;;;;;4963096;28;20053;-89
2021/06/23 01:37:20;;;;;;;18.20;14.23;;;15.90;99.90;;;;;;4973081;28;20462;-89
2021/06/23 01:39:47;;;;;;;24.70;14.82;;;16.00;99.90;;;;;;4955301;28;20524;-90
2021/06/23 01:42:13;;;;;;;18.85;15.07;;;16.00;99.90;;;;;;4950478;28;20083;-89
2021/06/23 01:44:40;;;;;;;23.38;15.48;;;16.00;99.90;;;;;;4943772;28;20426;-90
2021/06/23 01:47:07;;;;;;;24.42;16.33;;;16.00;99.90;;;;;;4954638;28;20044;-90
2021/06/23 01:49:34;;;;;;;25.20;15.30;;;16.00;99.90;;;;;;4962138;28;20045;-89
2021/06/23 01:52:05;;;;;;;20.52;15.27;;;15.90;99.90;;;;;;4973417;28;20137;-90
2021/06/23 01:54:32;;;;;;;23.20;16.60;;;15.90;99.90;;;;;;4969303;28;20118;-90
2021/06/23 01:56:59;;;;;;;24.95;16.55;;;16.00;99.90;;;;;;4963092;28;20139;-90
2021/06/23 01:59:27;;;;;;;21.23;16.65;;;16.00;99.90;;;;;;4962123;28;20051;-90
2021/06/23 02:02:12;;;;;;;31.08;18.00;;;15.90;99.90;;;;;;4982101;28;20089;-90
2021/06/23 02:05:01;;;;;;;28.10;18.33;;;15.90;99.90;;;;;;4971583;28;20124;-89
2021/06/23 02:07:50;;;;;;;25.45;18.38;;;15.90;99.90;;;;;;4970322;28;20113;-90
2021/06/23 02:10:35;;;;;;;25.02;18.40;;;15.90;99.90;;;;;;4970737;28;20745;-90
2021/06/23 02:13:29;;;;;;;25.27;18.88;;;15.80;99.90;;;;;;4968535;28;20049;-89
2021/06/23 02:16:02;;;;;;;27.85;18.30;;;15.80;99.90;;;;;;4967082;28;20078;-90
2021/06/23 02:18:28;;;;;;;28.30;19.88;;;15.70;99.90;;;;;;4962268;28;20050;-90
2021/06/23 02:20:58;;;;;;;25.13;18.60;;;15.70;99.90;;;;;;4956039;28;20063;-90
2021/06/23 02:23:29;;;;;;;27.70;18.95;;;15.70;99.90;;;;;;4951406;28;20134;-88
2021/06/23 02:25:57;;;;;;;23.60;17.20;;;15.60;99.90;;;;;;4969563;28;20118;-90
2021/06/23 02:28:24;;;;;;;20.00;15.55;;;15.60;99.90;;;;;;4944112;28;20464;-90
2021/06/23 02:30:51;;;;;;;18.83;14.02;;;15.50;99.90;;;;;;4969702;28;20133;-89
2021/06/23 02:33:21;;;;;;;16.30;14.00;;;15.50;99.90;;;;;;4946667;28;20054;-90
2021/06/23 02:35:50;;;;;;;17.77;13.90;;;15.60;99.90;;;;;;4966606;28;20463;-90
2021/06/23 02:38:17;;;;;;;16.45;13.23;;;15.60;99.90;;;;;;4967947;28;20064;-90
2021/06/23 02:40:44;;;;;;;15.00;10.13;;;15.50;99.90;;;;;;4956416;28;20129;-88
2021/06/23 02:43:14;;;;;;;15.95;11.35;;;15.50;99.90;;;;;;4930326;28;20051;-89
2021/06/23 02:45:43;;;;;;;18.80;14.48;;;15.50;99.90;;;;;;4954235;28;20053;-90
2021/06/23 02:48:13;;;;;;;20.05;15.45;;;15.50;99.90;;;;;;4968317;28;20133;-89
2021/06/23 02:51:06;;;;;;;20.60;16.95;;;15.50;99.90;;;;;;4950891;28;20206;-90
2021/06/23 02:53:38;;;;;;;18.88;14.55;;;15.50;99.90;;;;;;4968062;28;20125;-90
2021/06/23 02:56:08;;;;;;;28.83;17.08;;;15.50;99.90;;;;;;4966720;28;20065;-90
2021/06/23 02:58:36;;;;;;;20.90;16.38;;;15.40;99.90;;;;;;4965758;28;20551;-89
2021/06/23 03:01:05;;;;;;;19.35;14.88;;;15.40;99.90;;;;;;4967698;28;20125;-89
2021/06/23 03:03:32;;;;;;;22.83;15.45;;;15.30;99.90;;;;;;4951256;28;20141;-91
2021/06/23 03:06:01;;;;;;;20.20;14.70;;;15.40;99.90;;;;;;4955597;28;20470;-90
2021/06/23 03:08:28;;;;;;;15.35;12.75;;;15.30;99.90;;;;;;4958845;28;20130;-90
2021/06/23 03:10:58;;;;;;;16.45;11.90;;;15.30;99.90;;;;;;4968912;28;20409;-88
2021/06/23 03:13:25;;;;;;;19.40;12.65;;;15.30;99.90;;;;;;4971575;28;20050;-89
2021/06/23 03:15:52;;;;;;;20.10;10.73;;;15.30;99.90;;;;;;4971134;28;20046;-89
2021/06/23 03:18:19;;;;;;;14.70;11.68;;;15.30;99.90;;;;;;4957389;28;20375;-89
2021/06/23 03:20:47;;;;;;;14.55;11.02;;;15.30;99.90;;;;;;4949696;28;20129;-90
2021/06/23 03:23:14;;;;;;;17.65;11.25;;;15.20;99.90;;;;;;4957142;28;20051;-90
2021/06/23 03:25:41;;;;;;;16.63;12.70;;;15.20;99.90;;;;;;4969132;28;20057;-92
2021/06/23 03:28:11;;;;;;;17.13;12.20;;;15.20;99.90;;;;;;4942547;28;20066;-90
2021/06/23 03:30:40;;;;;;;8.32;6.55;;;15.20;99.90;;;;;;4976753;28;20070;-89
2021/06/23 03:37:09;;;;;;;11.13;7.55;;;15.20;99.90;;;;;;4966568;28;20085;-89
2021/06/23 03:46:37;;;;;;;9.23;8.00;;;15.30;99.90;;;;;;5791964;23;20448;-91
2021/06/23 03:49:04;;;;;;;11.05;8.35;;;15.30;99.90;;;;;;4975210;28;20129;-90
2021/06/23 03:51:35;;;;;;;14.07;9.07;;;15.30;99.90;;;;;;5016442;28;20050;-90
2021/06/23 03:54:03;;;;;;;11.27;9.25;;;15.40;99.90;;;;;;5018391;28;20204;-89
2021/06/23 03:56:30;;;;;;;13.98;12.40;;;15.40;99.90;;;;;;5004883;28;20105;-88
2021/06/23 03:58:57;;;;;;;18.63;13.25;;;15.40;99.90;;;;;;4999862;28;20133;-90
2021/06/23 04:01:24;;;;;;;16.65;12.15;;;15.50;99.90;;;;;;5006814;28;20109;-88
2021/06/23 04:03:52;;;;;;;16.08;11.93;;;15.50;99.90;;;;;;5015742;28;20140;-88
2021/06/23 04:06:18;;;;;;;15.25;10.55;;;15.60;99.90;;;;;;5026245;28;20046;-89
2021/06/23 04:08:46;;;;;;;12.10;10.77;;;15.60;99.90;;;;;;5009614;28;20434;-89
2021/06/23 04:11:13;;;;;;;15.73;10.25;;;15.60;99.90;;;;;;5020986;28;20072;-89
2021/06/23 04:13:42;;;;;;;12.10;10.82;;;15.60;99.90;;;;;;5024543;28;20090;-91
2021/06/23 04:16:09;;;;;;;15.88;11.00;;;15.70;99.90;;;;;;5007884;28;20401;-91
2021/06/23 04:18:36;;;;;;;13.38;10.30;;;15.70;99.90;;;;;;4982602;28;20046;-90
2021/06/23 04:21:06;;;;;;;14.20;9.48;;;15.80;99.90;;;;;;5010047;28;20133;-91
2021/06/23 04:23:33;;;;;;;16.73;14.45;;;15.80;99.90;;;;;;5006394;28;20619;-90
2021/06/23 04:26:04;;;;;;;14.82;11.23;;;15.80;99.90;;;;;;5010906;28;20132;-91
2021/06/23 04:28:32;;;;;;;12.98;10.95;;;15.80;99.90;;;;;;5010054;28;20056;-91
2021/06/23 04:30:58;;;;;;;16.15;11.63;;;15.80;99.90;;;;;;4992685;28;20181;-90
2021/06/23 04:33:27;;;;;;;11.60;10.30;;;15.70;99.90;;;;;;4993094;28;20137;-91
2021/06/23 04:35:55;;;;;;;14.38;11.48;;;15.70;99.90;;;;;;5015512;28;20198;-89
2021/06/23 04:38:24;;;;;;;14.73;10.30;;;15.70;99.90;;;;;;5012737;28;20443;-90
2021/06/23 04:40:51;;;;;;;13.13;10.95;;;15.70;99.90;;;;;;5013652;28;20073;-90
2021/06/23 04:43:18;;;;;;;15.60;11.98;;;15.70;99.90;;;;;;4984072;28;20452;-90
2021/06/23 04:45:46;;;;;;;16.10;11.82;;;15.70;99.90;;;;;;5010480;28;20125;-90
2021/06/23 04:48:13;;;;;;;14.55;11.10;;;15.80;99.90;;;;;;5000988;28;20065;-89
2021/06/23 04:50:40;;;;;;;12.65;10.70;;;15.80;99.90;;;;;;4995314;28;20042;-90
2021/06/23 04:53:10;;;;;;;11.52;9.38;;;15.90;99.90;;;;;;5005222;28;20054;-90
2021/06/23 04:55:59;;;;;;;14.20;7.72;;;15.90;99.90;;;;;;5005692;28;20435;-89
2021/06/23 04:58:32;;;;;;;7.32;6.55;;;15.90;99.90;;;;;;4919405;29;20060;-89
2021/06/23 05:00:59;;;;;;;5.78;4.32;;;15.90;99.90;;;;;;4997160;28;20165;-91
2021/06/23 05:03:34;;;;;;;8.45;4.00;;;15.90;99.90;;;;;;4989211;28;20516;-90
2021/06/23 05:06:01;;;;;;;5.80;4.10;;;15.90;99.90;;;;;;5008600;28;20053;-92
2021/06/23 05:08:43;;;;;;;7.00;4.60;;;16.00;99.90;;;;;;4987830;28;20096;-91
2021/06/23 05:11:51;;;;;;;7.70;3.70;;;16.10;99.90;;;;;;5007273;28;20103;-91
2021/06/23 05:18:07;;;;;;;3.83;3.42;;;16.30;99.90;;;;;;4875529;29;20285;-91
2021/06/23 05:20:36;;;;;;;5.55;3.40;;;16.40;99.90;;;;;;4933568;29;20122;-90
2021/06/23 05:23:08;;;;;;;4.28;3.05;;;16.40;99.90;;;;;;4904528;29;20052;-90
2021/06/23 05:25:35;;;;;;;6.65;3.45;;;16.50;99.90;;;;;;4916794;29;20520;-90
2021/06/23 05:28:03;;;;;;;2.67;2.47;;;16.60;99.90;;;;;;4935482;29;20118;-90
2021/06/23 05:30:34;;;;;;;2.85;2.63;;;16.70;99.90;;;;;;4905614;29;20051;-90
2021/06/23 05:33:23;;;;;;;7.00;2.63;;;16.90;99.90;;;;;;4939000;29;20205;-92
2021/06/23 05:36:12;;;;;;;4.70;2.30;;;17.00;99.90;;;;;;4925092;29;20064;-92
2021/06/23 05:38:44;;;;;;;4.18;2.20;;;17.10;99.90;;;;;;4918697;29;20374;-88
2021/06/23 05:41:15;;;;;;;5.03;2.55;;;17.20;99.90;;;;;;4930882;29;20055;-90
2021/06/23 05:44:19;;;;;;;2.58;2.38;;;17.30;99.90;;;;;;4891223;29;20060;-91
2021/06/23 05:46:46;;;;;;;4.25;2.90;;;17.40;99.90;;;;;;4878641;29;20098;-91
2021/06/23 05:49:15;;;;;;;5.03;2.92;;;17.60;99.90;;;;;;4891818;29;20064;-90
2021/06/23 05:51:46;;;;;;;3.75;3.20;;;17.70;99.90;;;;;;4893172;29;20064;-91
2021/06/23 05:54:15;;;;;;;4.20;3.40;;;17.80;99.90;;;;;;4924673;28;20059;-90
2021/06/23 05:56:44;;;;;;;3.70;3.10;;;17.90;99.90;;;;;;4969790;28;20132;-89
2021/06/23 05:59:16;;;;;;;4.70;3.63;;;18.00;99.90;;;;;;4952943;28;20370;-88
2021/06/23 06:01:46;;;;;;;3.80;2.97;;;18.10;99.90;;;;;;4969310;28;20042;-90
2021/06/23 06:04:13;;;;;;;4.07;3.55;;;18.30;99.90;;;;;;4947367;28;20063;-89
2021/06/23 06:06:40;;;;;;;4.40;3.78;;;18.50;99.90;;;;;;4951604;28;20165;-89
2021/06/23 06:09:14;;;;;;;6.38;3.88;;;18.70;99.90;;;;;;4948883;28;20043;-91
2021/06/23 06:11:47;;;;;;;6.03;4.05;;;18.80;99.90;;;;;;4943934;28;20161;-93
2021/06/23 06:14:54;;;;;;;;;;;;;;;;;;;;;
2021/06/23 06:18:44;;;;;;;3.78;3.38;;;18.80;99.90;;;;;;5008620;28;20603;-91
2021/06/23 06:22:13;;;;;;;3.92;2.80;;;18.60;99.90;;;;;;4990920;28;20484;-92
2021/06/23 06:25:29;;;;;;;5.43;3.40;;;18.80;99.90;;;;;;5003210;28;20449;-91
2021/06/23 06:28:27;;;;;;;;;;;;;;;;;;;;;
2021/06/23 06:31:59;;;;;;;3.30;2.80;;;19.40;99.90;;;;;;4926139;29;20059;-93
2021/06/23 06:46:42;;;;;;;5.53;2.40;;;20.70;99.90;;;;;;4735890;30;20048;-92
2021/06/23 06:49:51;;;;;;;3.05;2.50;;;21.40;99.90;;;;;;4740102;30;20051;-92
2021/06/23 06:56:58;;;;;;;;;;;;;;;;;;;;;
2021/06/23 06:59:29;;;;;;;8.02;2.65;;;22.00;99.90;;;;;;4810420;29;20480;-92
2021/06/23 07:02:14;;;;;;;4.60;2.38;;;22.10;99.90;;;;;;4851755;29;20062;-91
2021/06/23 07:52:04;;;;;;;1.70;1.30;;;24.60;97.90;;;;;;5067104;23;20043;-93
2021/06/23 08:14:01;;;;;;;3.28;1.30;;;26.20;94.10;;;;;;4875774;29;20037;-92
2021/06/23 08:17:06;;;;;;;2.80;1.25;;;27.10;90.20;;;;;;4867011;29;20065;-92
2021/06/23 08:20:33;;;;;;;1.50;0.88;;;27.60;79.80;;;;;;4905098;29;20080;-92
2021/06/23 08:23:10;;;;;;;2.33;1.27;;;27.90;88.50;;;;;;4916782;29;20063;-91
2021/06/23 08:26:25;;;;;;;1.17;0.85;;;28.60;79.80;;;;;;4964511;28;20046;-92
2021/06/23 08:44:14;;;;;;;;;;;;;;;;;;;;;
2021/06/23 08:48:06;;;;;;;;;;;;;;;;;;;;;
2021/06/23 08:54:19;;;;;;;2.03;1.10;;;29.70;61.10;;;;;;4737396;30;20230;-91
2021/06/23 08:56:50;;;;;;;1.25;0.80;;;28.50;63.60;;;;;;4747010;30;20155;-93
2021/06/23 09:06:58;;;;;;;2.35;0.63;;;29.30;63.80;;;;;;4785666;29;20064;-91
2021/06/23 09:09:37;;;;;;;0.50;0.43;;;30.20;61.40;;;;;;4822078;29;20523;-91
2021/06/23 09:12:36;;;;;;;0.68;0.57;;;30.60;58.60;;;;;;4877703;29;20067;-91
2021/06/23 09:19:31;;;;;;;;;;;;;;;;;;;;;
2021/06/23 09:22:47;;;;;;;;;;;;;;;;;;;;;
2021/06/23 09:25:32;;;;;;;2.13;0.93;;;30.90;54.20;;;;;;4986461;28;20062;-91
2021/06/23 09:28:04;;;;;;;1.55;0.60;;;31.20;56.40;;;;;;4971969;28;20050;-94
2021/06/23 09:30:41;;;;;;;1.20;0.60;;;31.40;57.50;;;;;;4973051;28;20098;-92
2021/06/23 09:33:25;;;;;;;0.95;0.63;;;31.60;58.00;;;;;;4978840;28;20058;-91
2021/06/23 09:36:12;;;;;;;1.25;0.70;;;32.10;56.00;;;;;;4987796;28;20112;-90
2021/06/23 09:38:59;;;;;;;1.23;0.60;;;32.20;55.40;;;;;;4975146;28;20043;-92
2021/06/23 09:41:43;;;;;;;1.10;0.60;;;31.50;54.60;;;;;;4983366;28;20050;-91
2021/06/23 09:44:13;;;;;;;1.10;0.80;;;30.90;56.00;;;;;;5002727;28;20104;-90
2021/06/23 09:46:48;;;;;;;7.03;0.85;;;31.10;56.00;;;;;;5007060;28;20101;-90
2021/06/23 09:49:26;;;;;;;0.80;0.57;;;31.70;56.70;;;;;;4995266;28;20050;-90
2021/06/23 09:51:55;;;;;;;1.85;0.57;;;31.90;55.50;;;;;;4990563;28;20061;-89
2021/06/23 09:54:25;;;;;;;1.70;0.70;;;30.80;54.40;;;;;;4971944;28;20088;-93
2021/06/23 09:57:13;;;;;;;3.17;0.60;;;30.00;58.50;;;;;;4997516;28;20050;-93
2021/06/23 09:59:43;;;;;;;3.20;0.63;;;28.80;61.00;;;;;;4990642;28;20432;-91
2021/06/23 10:02:23;;;;;;;3.17;0.88;;;28.60;63.70;;;;;;4991277;28;20050;-90
2021/06/23 10:04:54;;;;;;;1.23;0.70;;;28.70;63.90;;;;;;4976896;28;20307;-93
2021/06/23 10:08:05;;;;;;;3.78;0.75;;;29.30;63.00;;;;;;4990363;28;20117;-92
2021/06/23 10:10:52;;;;;;;2.40;0.55;;;28.80;63.80;;;;;;4969475;28;20051;-91
2021/06/23 10:13:23;;;;;;;1.30;0.70;;;29.30;65.20;;;;;;4990371;28;20105;-91
2021/06/23 10:15:55;;;;;;;2.85;0.70;;;29.10;62.70;;;;;;4973100;28;20035;-90
2021/06/23 10:18:28;;;;;;;0.98;0.60;;;29.10;63.60;;;;;;4986277;28;20050;-92
2021/06/23 10:20:58;;;;;;;1.98;0.75;;;29.80;64.60;;;;;;4988284;28;20058;-90
2021/06/23 10:23:35;;;;;;;3.10;0.65;;;30.10;61.80;;;;;;4989900;28;20130;-92
2021/06/23 10:26:03;;;;;;;3.50;0.40;;;29.40;61.70;;;;;;4988071;28;20484;-90
2021/06/23 10:28:33;;;;;;;1.13;0.70;;;29.70;64.20;;;;;;4973176;28;20544;-90
2021/06/23 10:31:05;;;;;;;1.60;0.70;;;29.40;60.80;;;;;;4987406;28;20132;-90
2021/06/23 10:33:37;;;;;;;2.28;0.60;;;29.70;61.40;;;;;;4985811;28;20677;-92
2021/06/23 10:36:08;;;;;;;1.10;0.70;;;30.20;58.20;;;;;;4987407;28;20069;-92
2021/06/23 10:38:54;;;;;;;1.95;0.60;;;30.90;58.40;;;;;;4932682;29;20040;-91
2021/06/23 10:41:39;;;;;;;;;;;;;;;;;;;;;
2021/06/23 10:44:49;;;;;;;;;;;;;;;;;;;;;
2021/06/23 10:48:03;;;;;;;1.52;0.65;;;31.50;54.50;;;;;;4929168;29;20056;-93
2021/06/23 10:51:16;;;;;;;;;;;;;;;;;;;;;
2021/06/23 10:53:46;;;;;;;2.58;0.50;;;31.30;56.80;;;;;;4946570;28;20054;-92
2021/06/23 10:56:42;;;;;;;1.65;0.40;;;32.00;53.10;;;;;;4935146;29;20146;-92
2021/06/23 10:59:48;;;;;;;;;;;;;;;;;;;;;
2021/06/23 11:02:39;;;;;;;1.80;0.35;;;32.40;51.70;;;;;;4951100;29;20065;-92
2021/06/23 11:05:25;;;;;;;;;;;;;;;;;;;;;
2021/06/23 11:09:17;;;;;;;;;;;;;;;;;;;;;
2021/06/23 11:11:49;;;;;;;3.40;0.40;;;31.50;48.20;;;;;;4970947;28;20037;-90
2021/06/23 11:15:08;;;;;;;0.40;0.20;;;31.50;50.00;;;;;;4968238;28;20090;-92
2021/06/23 11:19:09;;;;;;;0.43;0.30;;;32.10;49.20;;;;;;4853597;29;20141;-93
2021/06/23 11:22:39;;;;;;;0.73;0.22;;;33.00;50.10;;;;;;4775933;30;20059;-91
2021/06/23 11:25:34;;;;;;;1.80;0.20;;;33.60;47.00;;;;;;4735638;30;20348;-90
2021/06/23 11:28:31;;;;;;;0.40;0.30;;;33.30;45.40;;;;;;4797834;29;20062;-91
2021/06/23 11:31:20;;;;;;;0.55;0.20;;;32.90;46.20;;;;;;4893535;29;20136;-93
2021/06/23 11:34:02;;;;;;;;;;;33.10;46.50;;;;;;4897033;29;20131;-93
2021/06/23 11:36:43;;;;;;;0.40;0.38;;;33.20;45.40;;;;;;4904341;29;19934;-92
2021/06/23 11:39:23;;;;;;;0.20;0.20;;;33.30;44.90;;;;;;4899244;29;20760;-90
2021/06/23 11:42:00;;;;;;;0.68;0.28;;;33.30;44.60;;;;;;4912091;29;20049;-90
2021/06/23 11:44:30;;;;;;;0.90;0.25;;;33.20;43.40;;;;;;4914773;29;20472;-91
2021/06/23 11:47:13;;;;;;;0.43;0.35;;;32.90;45.60;;;;;;4915041;29;20384;-93
2021/06/23 11:49:51;;;;;;;0.70;0.20;;;32.60;46.50;;;;;;4930575;28;20068;-90
2021/06/23 11:52:18;;;;;;;0.50;0.40;;;32.40;46.50;;;;;;4982693;28;20058;-90
2021/06/23 11:54:47;;;;;;;1.02;0.93;;;32.30;46.30;;;;;;4992972;28;20211;-90
2021/06/23 11:57:14;;;;;;;0.70;0.38;;;32.60;44.50;;;;;;4991394;28;20128;-90
2021/06/23 11:59:48;;;;;;;2.08;0.35;;;33.20;45.80;;;;;;4975295;28;20038;-89
2021/06/23 12:02:17;;;;;;;12.90;6.38;;;33.70;44.10;;;;;;4992766;28;20130;-91
2021/06/23 12:04:46;;;;;;;138.55;86.97;;;34.40;44.80;;;;;;4991713;28;20038;-91
2021/06/23 12:07:15;;;;;;;51.58;28.55;;;34.60;42.60;;;;;;4992076;28;20038;-87
2021/06/23 12:09:43;;;;;;;19.70;9.77;;;34.30;41.70;;;;;;4975082;28;20136;-90
2021/06/23 12:12:11;;;;;;;1.35;0.43;;;33.60;40.50;;;;;;4992434;28;20092;-93
2021/06/23 12:14:39;;;;;;;0.52;0.28;;;32.70;42.30;;;;;;4975871;28;20050;-92
2021/06/23 12:17:08;;;;;;;0.28;0.20;;;32.40;44.40;;;;;;4993080;28;20054;-90
2021/06/23 12:19:34;;;;;;;0.17;0.10;;;32.40;45.00;;;;;;4980595;28;20062;-91
2021/06/23 12:22:07;;;;;;;1.92;0.30;;;32.70;44.60;;;;;;4983495;28;20438;-88
2021/06/23 12:24:47;;;;;;;;;;;;;;;;;;;;;
2021/06/23 12:27:41;;;;;;;0.47;0.38;;;33.50;40.40;;;;;;4969093;28;20050;-91
2021/06/23 12:30:09;;;;;;;0.98;0.30;;;33.90;43.40;;;;;;4975367;28;20519;-88
2021/06/23 12:32:36;;;;;;;0.30;0.10;;;34.00;41.70;;;;;;4975123;28;20068;-91
2021/06/23 12:35:05;;;;;;;0.47;0.30;;;33.60;43.50;;;;;;4975927;28;20397;-91
2021/06/23 12:37:33;;;;;;;1.55;0.10;;;33.60;43.50;;;;;;4976042;28;20062;-91
2021/06/23 12:40:00;;;;;;;1.95;0.38;;;33.40;43.30;;;;;;4971554;28;20112;-91
2021/06/23 12:42:33;;;;;;;0.10;0.10;;;34.10;44.30;;;;;;4992118;28;20046;-91
2021/06/23 12:45:00;;;;;;;1.25;0.28;;;34.90;41.30;;;;;;4974147;28;20050;-91
2021/06/23 12:47:35;;;;;;;1.92;0.30;;;35.10;41.00;;;;;;4969270;28;20046;-92
2021/06/23 12:50:10;;;;;;;1.33;0.35;;;35.00;39.90;;;;;;4991310;28;20449;-91
2021/06/23 12:52:37;;;;;;;0.43;0.20;;;35.10;41.60;;;;;;4986647;28;20125;-90
2021/06/23 12:55:09;;;;;;;0.65;0.22;;;35.30;39.90;;;;;;4991687;28;20177;-90
2021/06/23 12:57:38;;;;;;;0.30;0.10;;;35.80;39.20;;;;;;4990453;28;20073;-91
2021/06/23 13:00:09;;;;;;;0.35;0.10;;;35.40;39.80;;;;;;4975036;28;20093;-90
2021/06/23 13:02:37;;;;;;;;;;;35.90;39.90;;;;;;4992251;28;20077;-91
2021/06/23 13:05:06;;;;;;;0.32;0.22;;;35.80;37.70;;;;;;4991004;28;19928;-90
2021/06/23 13:08:50;;;;;;;;;;;;;;;;;;;;;
2021/06/23 13:11:21;;;;;;;0.60;0.30;;;32.70;42.50;;;;;;4972020;28;20047;-91
2021/06/23 13:13:55;;;;;;;1.67;0.80;;;32.60;42.90;;;;;;4979807;28;20173;-93
2021/06/23 13:17:07;;;;;;;4.55;0.88;;;32.90;45.80;;;;;;4963940;28;21360;-92
2021/06/23 13:20:20;;;;;;;;;;;;;;;;;;;;;
2021/06/23 13:23:50;;;;;;;3.75;1.00;;;33.60;48.60;;;;;;4992088;28;20066;-92
2021/06/23 13:26:49;;;;;;;3.47;0.90;;;33.10;47.90;;;;;;4987449;28;20501;-93
2021/06/23 13:29:24;;;;;;;1.50;0.90;;;32.50;49.50;;;;;;4974506;28;20054;-90
2021/06/23 13:32:08;;;;;;;0.60;0.60;;;32.10;50.10;;;;;;4977434;28;20168;-88
2021/06/23 13:34:38;;;;;;;4.03;0.88;;;32.30;50.20;;;;;;4985266;28;20493;-89
2021/06/23 13:37:06;;;;;;;2.90;0.70;;;31.90;51.30;;;;;;4972035;28;20450;-90
2021/06/23 13:39:34;;;;;;;2.47;0.70;;;32.10;51.20;;;;;;4974254;28;20121;-89
2021/06/23 13:42:03;;;;;;;2.45;0.60;;;32.50;51.60;;;;;;4986553;28;20050;-89
2021/06/23 13:44:31;;;;;;;6.25;0.57;;;32.30;49.70;;;;;;4986516;28;20062;-90
2021/06/23 13:46:58;;;;;;;1.83;0.70;;;32.30;49.40;;;;;;4971627;28;20042;-91
2021/06/23 13:49:27;;;;;;;1.08;0.60;;;32.30;51.50;;;;;;4987233;28;20051;-91
2021/06/23 13:51:57;;;;;;;2.53;0.60;;;32.60;49.50;;;;;;5001320;28;20057;-91
2021/06/23 13:54:25;;;;;;;3.17;0.77;;;32.70;50.40;;;;;;4970622;28;20085;-90
2021/06/23 13:56:54;;;;;;;1.23;0.63;;;32.90;48.90;;;;;;5001372;28;20078;-89
2021/06/23 13:59:23;;;;;;;0.80;0.50;;;32.60;48.60;;;;;;4965208;28;20128;-92
2021/06/23 14:02:22;;;;;;;;;;;;;;;;;;;;;
2021/06/23 14:08:16;;;;;;;3.60;1.90;;;30.40;53.80;;;;;;4939634;28;20069;-91
2021/06/23 14:11:09;;;;;;;1.42;0.60;;;29.80;54.20;;;;;;4996914;28;20039;-91
2021/06/23 14:14:09;;;;;;;;;;;;;;;;;;;;;
2021/06/23 14:16:59;;;;;;;2.97;0.80;;;28.60;56.00;;;;;;5004912;28;20038;-92
2021/06/23 14:19:32;;;;;;;1.88;0.80;;;28.00;58.00;;;;;;5008378;28;20061;-91
2021/06/23 14:22:14;;;;;;;1.92;0.68;;;27.80;57.20;;;;;;4987396;28;20086;-91
2021/06/23 14:24:42;;;;;;;1.80;0.50;;;27.80;57.30;;;;;;4998679;28;20052;-91
2021/06/23 14:27:28;;;;;;;2.25;0.52;;;27.50;55.20;;;;;;4983826;28;20054;-92
2021/06/23 14:30:15;;;;;;;1.15;0.50;;;27.20;55.10;;;;;;4974561;28;20058;-92
2021/06/23 14:33:05;;;;;;;1.08;0.47;;;26.90;55.80;;;;;;4990340;28;20055;-91
2021/06/23 14:35:48;;;;;;;;;;;;;;;;;;;;;
2021/06/23 14:38:15;;;;;;;1.77;0.60;;;27.00;55.00;;;;;;4991904;28;20125;-92
2021/06/23 14:40:42;;;;;;;2.50;0.40;;;27.10;55.80;;;;;;4960326;28;20046;-91
2021/06/23 14:43:15;;;;;;;0.88;0.60;;;26.70;55.60;;;;;;4993019;28;20042;-92
2021/06/23 14:45:56;;;;;;;1.73;0.90;;;26.00;59.00;;;;;;4991602;28;20053;-89
2021/06/23 14:48:33;;;;;;;;;;;;;;;;;;;;;
2021/06/23 14:51:00;;;;;;;5.53;1.00;;;25.20;63.70;;;;;;4984417;28;20042;-91
2021/06/23 14:53:37;;;;;;;1.88;1.10;;;24.60;67.70;;;;;;4975546;28;20050;-91
2021/06/23 14:56:16;;;;;;;2.03;1.10;;;24.30;68.80;;;;;;4991820;28;20105;-93
2021/06/23 14:58:55;;;;;;;3.08;0.93;;;23.80;72.30;;;;;;4957573;28;20047;-93
2021/06/23 15:01:25;;;;;;;1.95;1.25;;;23.60;76.00;;;;;;4975793;28;20038;-92
2021/06/23 15:04:22;;;;;;;;;;;;;;;;;;;;;
2021/06/23 15:07:29;;;;;;;3.15;1.67;;;23.00;81.50;;;;;;4990315;28;20062;-91
2021/06/23 15:10:49;;;;;;;3.05;1.70;;;22.70;87.30;;;;;;4986986;28;20042;-93
2021/06/23 15:13:59;;;;;;;4.88;2.10;;;22.50;90.40;;;;;;4972664;28;20054;-92
2021/06/23 15:16:27;;;;;;;2.72;2.38;;;22.20;96.40;;;;;;4991281;28;20496;-93
2021/06/23 15:19:03;;;;;;;2.42;2.17;;;22.00;99.90;;;;;;4962162;28;20108;-92
2021/06/23 15:21:32;;;;;;;5.03;2.83;;;21.80;99.90;;;;;;4992511;28;20484;-92
2021/06/23 15:24:01;;;;;;;2.78;2.45;;;21.60;99.90;;;;;;4993511;28;20125;-91
2021/06/23 15:29:54;;;;;;;4.50;4.05;;;21.30;99.90;;;;;;4934421;29;20051;-92
2021/06/23 15:32:23;;;;;;;6.18;4.10;;;21.20;99.90;;;;;;4990804;28;20049;-92
2021/06/23 15:35:01;;;;;;;3.88;3.45;;;21.00;99.90;;;;;;4973475;28;20046;-92
2021/06/23 15:37:37;;;;;;;3.87;3.43;;;20.90;99.90;;;;;;4975051;28;20057;-88
2021/06/23 15:43:18;;;;;;;7.07;5.13;;;20.70;99.90;;;;;;4968790;28;20085;-91
2021/06/23 15:45:50;;;;;;;7.72;5.07;;;20.40;99.90;;;;;;4983432;28;20061;-89
2021/06/23 15:48:28;;;;;;;8.02;5.70;;;20.10;99.90;;;;;;4991767;28;20065;-91
2021/06/23 15:50:56;;;;;;;6.95;5.65;;;19.80;99.90;;;;;;4975613;28;20062;-92
2021/06/23 15:53:29;;;;;;;10.63;6.38;;;19.60;99.90;;;;;;4977148;28;20046;-91
2021/06/23 15:56:18;;;;;;;;;;;;;;;;;;;;;
2021/06/23 15:58:57;;;;;;;7.35;6.63;;;19.30;99.90;;;;;;4990395;28;20062;-90
2021/06/23 16:01:30;;;;;;;8.55;7.05;;;19.30;99.90;;;;;;4990421;28;20122;-92
2021/06/23 16:03:59;;;;;;;10.02;7.07;;;19.20;99.90;;;;;;4978777;28;20105;-92
2021/06/23 16:06:36;;;;;;;9.93;7.90;;;19.00;99.90;;;;;;4991055;28;20119;-92
2021/06/23 16:09:08;;;;;;;10.20;9.05;;;19.00;99.90;;;;;;4959499;28;20050;-92
2021/06/23 16:11:38;;;;;;;11.27;10.15;;;18.90;99.90;;;;;;4974699;28;20157;-93
2021/06/23 16:14:08;;;;;;;16.33;10.93;;;18.90;99.90;;;;;;4973581;28;20078;-91
2021/06/23 16:16:35;;;;;;;13.15;11.75;;;18.90;99.90;;;;;;4965450;28;20109;-89